createdAt,value
2022-08-22T07:11:21.801Z,62.71
2022-08-22T07:14:45.626Z,61.75
2022-08-22T07:17:51.615Z,60.83
2022-08-22T07:21:04.395Z,60.14
2022-08-22T07:24:07.722Z,58.95
2022-08-22T07:27:52.546Z,59.94
2022-08-22T07:30:57.839Z,58.83
2022-08-22T07:34:40.620Z,57.98
2022-08-22T07:37:52.099Z,56.73
2022-08-22T07:41:10.903Z,56.28
2022-08-22T07:44:23.461Z,56.72
2022-08-22T07:47:34.839Z,57.34
2022-08-22T07:50:53.430Z,56.04
2022-08-22T07:54:02.622Z,55.41
2022-08-22T07:57:15.360Z,56.96
2022-08-22T08:00:20.457Z,54.61
2022-08-22T08:03:25.916Z,54.28
2022-08-22T08:06:32.046Z,54.61
2022-08-22T08:09:39.238Z,55.20
2022-08-22T08:12:52.701Z,55.12
2022-08-22T08:16:08.364Z,54.45
2022-08-22T08:19:12.312Z,52.62
2022-08-22T08:22:19.140Z,52.45
2022-08-22T08:25:27.652Z,53.60
2022-08-22T08:28:37.592Z,51.69
2022-08-22T08:31:44.717Z,50.64
2022-08-22T08:34:47.343Z,51.21
2022-08-22T08:37:59.271Z,52.73
2022-08-22T08:41:22.700Z,51.44
2022-08-22T08:44:49.945Z,51.48
2022-08-22T08:48:27.324Z,51.05
2022-08-22T08:52:10.277Z,51.29
2022-08-22T08:55:31.037Z,49.22
2022-08-22T08:58:41.562Z,51.63
2022-08-22T09:02:06.114Z,51.31
2022-08-22T09:05:19.523Z,49.53
2022-08-22T09:08:44.847Z,50.02
2022-08-22T09:12:24.874Z,49.89
2022-08-22T09:16:04.506Z,48.72
2022-08-22T09:19:27.224Z,50.04
2022-08-22T09:22:54.048Z,49.33
2022-08-22T09:26:17.257Z,48.32
2022-08-22T09:29:35.893Z,48.16
2022-08-22T09:32:57.359Z,49.51
2022-08-22T09:36:05.103Z,49.04
2022-08-22T09:39:13.803Z,49.37
2022-08-22T09:42:50.298Z,49.94
2022-08-22T09:46:15.542Z,46.37
2022-08-22T09:49:26.255Z,45.88
2022-08-22T09:53:03.173Z,45.68
2022-08-22T09:56:11.596Z,46.08
2022-08-22T09:59:40.636Z,47.35
2022-08-22T10:03:01.554Z,47.29
2022-08-22T10:06:15.730Z,47.77
2022-08-22T10:09:31.497Z,48.43
2022-08-22T10:12:44.796Z,48.08
2022-08-22T10:16:16.411Z,48.65
2022-08-22T10:19:34.246Z,50.03
2022-08-22T10:22:47.459Z,49.20
2022-08-22T10:25:54.259Z,48.60
2022-08-22T10:29:09.245Z,49.93
2022-08-22T10:32:47.933Z,49.82
2022-08-22T10:36:05.304Z,51.24
2022-08-22T10:39:12.011Z,50.38
2022-08-22T10:42:18.654Z,50.79
2022-08-22T10:45:36.802Z,50.44
2022-08-22T10:48:42.428Z,50.62
2022-08-22T10:51:54.074Z,50.77
2022-08-22T10:55:00.856Z,51.01
2022-08-22T10:58:11.656Z,51.24
2022-08-22T11:01:37.823Z,51.72
2022-08-22T11:05:20.172Z,50.86
2022-08-22T11:08:45.999Z,52.79
2022-08-22T11:12:16.593Z,51.17
2022-08-22T11:15:57.481Z,52.01
2022-08-22T11:19:15.202Z,51.04
2022-08-22T11:22:48.733Z,50.27
2022-08-22T11:26:30.040Z,49.42
2022-08-22T11:29:55.057Z,49.76
2022-08-22T11:33:17.999Z,49.83
2022-08-22T11:36:26.351Z,49.68
2022-08-22T11:40:08.094Z,50.09
2022-08-22T11:43:20.037Z,48.76
2022-08-22T11:46:31.256Z,48.78
2022-08-22T11:49:33.524Z,49.13
2022-08-22T11:53:01.684Z,49.33
2022-08-22T11:56:19.376Z,48.60
2022-08-22T11:59:30.187Z,49.10
2022-08-22T12:03:02.763Z,49.44
2022-08-22T12:06:50.126Z,49.26
2022-08-22T12:09:58.787Z,49.42
2022-08-22T12:13:14.573Z,50.15
2022-08-22T12:16:47.324Z,50.03
2022-08-22T12:20:16.050Z,49.93
2022-08-22T12:23:43.639Z,50.09
2022-08-22T12:27:13.015Z,49.18
2022-08-22T12:30:32.376Z,50.62
2022-08-22T12:34:12.460Z,50.91
2022-08-22T12:37:24.376Z,48.72
2022-08-22T12:40:56.262Z,48.15
2022-08-22T12:44:20.416Z,47.12
2022-08-22T12:47:36.230Z,48.09
2022-08-22T12:51:17.211Z,47.99
2022-08-22T12:54:37.537Z,49.02
2022-08-22T12:58:06.868Z,48.70
2022-08-22T13:01:11.138Z,48.96
2022-08-22T13:04:33.240Z,48.12
2022-08-22T13:07:38.450Z,47.58
2022-08-22T13:10:50.003Z,48.08
2022-08-22T13:13:56.462Z,47.75
2022-08-22T13:17:15.233Z,48.95
2022-08-22T13:20:37.870Z,47.35
2022-08-22T13:23:53.276Z,49.21
2022-08-22T13:27:00.431Z,47.40
2022-08-22T13:30:08.052Z,48.48
2022-08-22T13:33:24.902Z,48.81
2022-08-22T13:36:28.096Z,47.03
2022-08-22T13:39:39.867Z,47.20
2022-08-22T13:42:48.195Z,48.69
2022-08-22T13:45:55.776Z,47.87
2022-08-22T13:49:01.283Z,48.36
2022-08-22T13:52:30.597Z,48.00
2022-08-22T13:55:43.076Z,48.69
2022-08-22T13:58:48.430Z,48.77
2022-08-22T14:02:07.192Z,47.91
2022-08-22T14:05:16.613Z,48.32
2022-08-22T14:08:31.707Z,49.84
2022-08-22T14:11:44.834Z,49.76
2022-08-22T14:14:54.958Z,49.94
2022-08-22T14:18:12.212Z,48.55
2022-08-22T14:21:54.083Z,48.89
2022-08-22T14:25:22.383Z,49.76
2022-08-22T14:28:30.961Z,50.07
2022-08-22T14:31:34.112Z,49.39
2022-08-22T14:34:40.323Z,49.13
2022-08-22T14:37:51.576Z,49.11
2022-08-22T14:40:57.979Z,48.42
2022-08-22T14:44:17.530Z,48.27
2022-08-22T14:47:54.130Z,47.90
2022-08-22T14:50:55.131Z,49.32
2022-08-22T14:54:21.443Z,49.49
2022-08-22T14:57:24.360Z,48.48
2022-08-22T15:00:38.909Z,48.81
2022-08-22T15:03:42.552Z,47.76
2022-08-22T15:06:57.897Z,46.81
2022-08-22T15:10:20.628Z,48.07
2022-08-22T15:13:25.195Z,48.74
2022-08-22T15:16:41.808Z,48.42
2022-08-22T15:19:47.297Z,48.21
2022-08-22T15:22:57.660Z,47.98
2022-08-22T15:26:03.884Z,49.39
2022-08-22T15:29:17.805Z,47.75
2022-08-22T15:32:31.327Z,48.90
2022-08-22T15:35:39.026Z,48.06
2022-08-22T15:38:47.955Z,48.37
2022-08-22T15:41:50.964Z,48.66
2022-08-22T15:44:55.712Z,49.25
2022-08-22T15:48:00.140Z,48.63
2022-08-22T15:51:33.421Z,48.97
2022-08-22T15:54:42.668Z,48.15
2022-08-22T15:58:13.083Z,49.01
2022-08-22T16:01:22.578Z,49.22
2022-08-22T16:04:49.850Z,49.52
2022-08-22T16:07:58.489Z,49.99
2022-08-22T16:11:03.667Z,49.95
2022-08-22T16:14:45.258Z,50.04
2022-08-22T16:17:53.322Z,49.83
2022-08-22T16:21:28.057Z,50.84
2022-08-22T16:24:38.022Z,51.20
2022-08-22T16:27:52.070Z,49.94
2022-08-22T16:30:56.140Z,52.18
2022-08-22T16:34:18.399Z,51.49
2022-08-22T16:37:42.604Z,51.91
2022-08-22T16:40:47.597Z,51.77
2022-08-22T16:44:16.630Z,51.57
2022-08-22T16:47:41.739Z,52.48
2022-08-22T16:50:44.023Z,52.80
2022-08-22T16:53:49.101Z,53.86
2022-08-22T16:57:23.567Z,54.19
2022-08-22T17:00:34.960Z,54.92
2022-08-22T17:04:07.779Z,54.67
2022-08-22T17:07:37.225Z,56.05
2022-08-22T17:10:39.153Z,55.85
2022-08-22T17:13:48.354Z,55.26
2022-08-22T17:17:12.077Z,56.10
2022-08-22T17:20:32.724Z,56.03
2022-08-22T17:24:00.865Z,57.82
2022-08-22T17:27:12.401Z,57.23
2022-08-22T17:30:29.327Z,57.44
2022-08-22T17:34:00.661Z,58.00
2022-08-22T17:37:07.842Z,57.74
2022-08-22T17:40:13.928Z,58.18
2022-08-22T17:43:48.779Z,58.44
2022-08-22T17:47:18.921Z,59.09
2022-08-22T17:50:54.136Z,59.66
2022-08-22T17:54:20.061Z,59.34
2022-08-22T17:57:35.255Z,59.73
2022-08-22T18:00:47.885Z,60.48
2022-08-22T18:03:57.174Z,60.35
2022-08-22T18:07:28.770Z,59.49
2022-08-22T18:10:40.113Z,61.95
2022-08-22T18:13:56.931Z,60.93
2022-08-22T18:17:00.840Z,60.13
2022-08-22T18:20:23.000Z,60.61
2022-08-22T18:23:45.616Z,60.57
2022-08-22T18:26:58.415Z,60.53
2022-08-22T18:30:21.487Z,61.20
2022-08-22T18:33:48.881Z,60.75
2022-08-22T18:37:11.836Z,61.68
2022-08-22T18:40:31.044Z,62.85
2022-08-22T18:43:36.193Z,63.58
2022-08-22T18:46:38.378Z,64.14
2022-08-22T18:49:44.448Z,64.40
2022-08-22T18:52:46.646Z,64.38
2022-08-22T18:55:58.336Z,65.04
2022-08-22T18:59:09.055Z,65.69
2022-08-22T19:02:55.588Z,64.89
2022-08-22T19:06:32.295Z,64.30
2022-08-22T19:10:01.275Z,65.64
2022-08-22T19:13:10.694Z,64.62
2022-08-22T19:16:32.223Z,65.33
2022-08-22T19:20:35.175Z,65.52
2022-08-22T19:23:43.639Z,66.68
2022-08-22T19:26:48.405Z,66.94
2022-08-22T19:29:55.120Z,66.35
2022-08-22T19:33:03.755Z,66.53
2022-08-22T19:36:10.875Z,66.75
2022-08-22T19:39:50.360Z,67.33
2022-08-22T19:43:16.642Z,68.04
2022-08-22T19:46:38.824Z,67.64
2022-08-22T19:50:05.915Z,67.36
2022-08-22T19:53:19.411Z,67.61
2022-08-22T19:56:49.719Z,69.61
2022-08-22T20:00:17.074Z,69.13
2022-08-22T20:03:44.887Z,69.04
2022-08-22T20:07:14.869Z,69.68
2022-08-22T20:10:30.768Z,69.63
2022-08-22T20:13:34.912Z,70.26
2022-08-22T20:17:14.736Z,69.54
2022-08-22T20:20:27.922Z,69.82
2022-08-22T20:23:32.753Z,71.50
2022-08-22T20:26:47.466Z,70.66
2022-08-22T20:30:15.490Z,70.83
2022-08-22T20:33:29.101Z,70.91
2022-08-22T20:36:31.505Z,72.12
2022-08-22T20:39:47.515Z,71.98
2022-08-22T20:43:10.574Z,71.98
2022-08-22T20:47:01.567Z,71.45
2022-08-22T20:50:12.053Z,72.31
2022-08-22T20:53:20.627Z,71.80
2022-08-22T20:56:53.599Z,71.26
2022-08-22T21:00:06.504Z,71.92
2022-08-22T21:03:21.611Z,72.07
2022-08-22T21:06:42.026Z,72.56
2022-08-22T21:10:20.156Z,72.27
2022-08-22T21:13:30.364Z,73.34
2022-08-22T21:16:33.547Z,74.07
2022-08-22T21:19:35.748Z,73.68
2022-08-22T21:22:38.255Z,73.42
2022-08-22T21:26:08.515Z,73.79
2022-08-22T21:29:10.581Z,73.16
2022-08-22T21:32:32.148Z,73.81
2022-08-22T21:35:34.442Z,74.30
2022-08-22T21:38:37.497Z,73.63
2022-08-22T21:42:03.088Z,73.92
2022-08-22T21:45:10.372Z,72.65
2022-08-22T21:48:35.928Z,72.95
2022-08-22T21:51:45.625Z,72.53
2022-08-22T21:54:47.770Z,72.86
2022-08-22T21:58:12.553Z,74.68
2022-08-22T22:01:33.687Z,73.93
2022-08-22T22:04:35.942Z,73.68
2022-08-22T22:07:42.404Z,75.84
2022-08-22T22:10:46.536Z,76.16
2022-08-22T22:13:49.038Z,74.85
2022-08-22T22:16:51.313Z,76.27
2022-08-22T22:19:54.157Z,76.64
2022-08-22T22:22:56.538Z,77.54
2022-08-22T22:26:01.786Z,78.84
2022-08-22T22:29:04.332Z,77.72
2022-08-22T22:32:07.496Z,77.60
2022-08-22T22:35:09.888Z,78.56
2022-08-22T22:38:19.397Z,82.49
2022-08-22T22:41:25.646Z,80.70
2022-08-22T22:44:27.948Z,81.56
2022-08-22T22:47:31.759Z,81.12
2022-08-22T22:50:37.887Z,81.32
2022-08-22T22:53:42.778Z,80.30
2022-08-22T22:56:47.903Z,79.93
2022-08-22T22:59:50.527Z,79.90
2022-08-22T23:02:53.228Z,80.79
2022-08-22T23:05:55.409Z,80.45
2022-08-22T23:08:58.221Z,83.57
2022-08-22T23:12:02.889Z,83.61
2022-08-22T23:15:06.603Z,82.56
2022-08-22T23:18:08.936Z,80.47
2022-08-22T23:21:20.155Z,80.40
2022-08-22T23:24:23.234Z,80.42
2022-08-22T23:27:25.505Z,82.26
2022-08-22T23:30:27.944Z,82.12
2022-08-22T23:33:30.023Z,83.70
2022-08-22T23:36:32.863Z,81.26
2022-08-22T23:39:36.039Z,80.94
2022-08-22T23:42:38.544Z,82.01
2022-08-22T23:45:43.455Z,81.80
2022-08-22T23:48:46.618Z,81.63
2022-08-22T23:51:50.044Z,81.76
2022-08-22T23:54:54.627Z,82.14
2022-08-22T23:57:58.129Z,82.41
